createdAt,value
2018-04-11T00:01:02.433Z,74.29
2018-04-11T00:03:30.821Z,74.21
2018-04-11T00:05:59.243Z,74.29
2018-04-11T00:08:27.708Z,74.05
2018-04-11T00:10:56.059Z,74.04
2018-04-11T00:13:25.363Z,74.19
2018-04-11T00:15:53.812Z,74.30
2018-04-11T00:18:22.311Z,74.20
2018-04-11T00:20:52.620Z,74.10
2018-04-11T00:23:21.049Z,74.40
2018-04-11T00:25:51.439Z,74.28
2018-04-11T00:28:20.007Z,74.42
2018-04-11T00:30:48.880Z,74.30
2018-04-11T00:33:18.295Z,74.29
2018-04-11T00:35:46.694Z,74.37
2018-04-11T00:38:15.026Z,74.53
2018-04-11T00:40:43.421Z,74.52
2018-04-11T00:43:12.609Z,74.40
2018-04-11T00:45:40.984Z,74.54
2018-04-11T00:48:09.429Z,74.50
2018-04-11T00:50:37.902Z,74.50
2018-04-11T00:53:18.016Z,74.66
2018-04-11T00:55:46.426Z,74.69
2018-04-11T00:58:15.555Z,74.67
2018-04-11T01:00:43.921Z,74.40
2018-04-11T01:03:13.068Z,74.19
2018-04-11T01:05:41.415Z,74.22
2018-04-11T01:08:09.767Z,74.25
2018-04-11T01:10:38.345Z,74.07
2018-04-11T01:13:06.701Z,74.32
2018-04-11T01:15:35.052Z,74.48
2018-04-11T01:18:03.514Z,74.49
2018-04-11T01:20:31.899Z,74.37
2018-04-11T01:23:00.273Z,74.08
2018-04-11T01:25:28.861Z,74.29
2018-04-11T01:27:57.306Z,74.55
2018-04-11T01:30:25.785Z,74.55
2018-04-11T01:32:54.772Z,74.25
2018-04-11T01:35:23.401Z,74.39
2018-04-11T01:37:51.862Z,74.59
2018-04-11T01:40:20.321Z,74.52
2018-04-11T01:42:48.785Z,74.40
2018-04-11T01:45:17.170Z,74.10
2018-04-11T01:47:45.561Z,74.51
2018-04-11T01:50:14.704Z,74.38
2018-04-11T01:52:43.088Z,74.55
2018-04-11T01:55:11.481Z,74.56
2018-04-11T01:57:39.986Z,74.51
2018-04-11T02:00:08.344Z,74.64
2018-04-11T02:02:36.742Z,74.67
2018-04-11T02:05:05.087Z,74.89
2018-04-11T02:07:33.574Z,74.87
2018-04-11T02:10:02.008Z,74.91
2018-04-11T02:12:30.367Z,74.82
2018-04-11T02:14:58.708Z,74.70
2018-04-11T02:17:27.274Z,74.69
2018-04-11T02:19:55.638Z,74.86
2018-04-11T02:22:23.999Z,74.85
2018-04-11T02:24:52.355Z,74.86
2018-04-11T02:27:20.795Z,75.08
2018-04-11T02:29:49.170Z,75.26
2018-04-11T02:32:17.575Z,75.29
2018-04-11T02:34:45.940Z,75.42
2018-04-11T02:37:14.510Z,75.18
2018-04-11T02:39:43.494Z,75.18
2018-04-11T02:42:11.837Z,75.21
2018-04-11T02:44:40.497Z,75.25
2018-04-11T02:47:08.898Z,75.26
2018-04-11T02:49:37.252Z,75.31
2018-04-11T02:52:05.604Z,75.11
2018-04-11T02:54:38.920Z,75.33
2018-04-11T02:57:07.297Z,75.16
2018-04-11T02:59:35.665Z,75.08
2018-04-11T03:02:04.264Z,75.12
2018-04-11T03:04:32.633Z,75.19
2018-04-11T03:07:01.050Z,75.12
2018-04-11T03:09:33.643Z,75.28
2018-04-11T03:12:02.184Z,75.48
2018-04-11T03:14:30.548Z,75.25
2018-04-11T03:16:58.940Z,75.35
2018-04-11T03:19:27.338Z,75.46
2018-04-11T03:21:55.920Z,75.45
2018-04-11T03:24:25.208Z,75.23
2018-04-11T03:26:53.843Z,75.19
2018-04-11T03:29:22.227Z,75.14
2018-04-11T03:31:50.651Z,75.15
2018-04-11T03:34:19.020Z,75.39
2018-04-11T03:36:47.428Z,75.31
2018-04-11T03:39:16.769Z,75.24
2018-04-11T03:41:45.149Z,75.32
2018-04-11T03:44:13.527Z,75.24
2018-04-11T03:46:42.044Z,75.05
2018-04-11T03:49:11.585Z,75.17
2018-04-11T03:51:39.932Z,75.47
2018-04-11T03:54:09.319Z,75.33
2018-04-11T03:56:37.641Z,75.26
2018-04-11T03:59:06.010Z,75.35
2018-04-11T04:01:34.597Z,75.28
2018-04-11T04:04:02.941Z,75.14
2018-04-11T04:06:31.285Z,75.24
2018-04-11T04:11:28.180Z,75.34
2018-04-11T04:14:08.450Z,75.13
2018-04-11T04:16:48.928Z,75.14
2018-04-11T04:21:50.812Z,74.95
2018-04-11T04:24:19.224Z,75.31
2018-04-11T04:26:47.689Z,75.31
2018-04-11T04:29:16.068Z,75.33
2018-04-11T04:31:44.487Z,75.27
2018-04-11T04:34:13.175Z,75.22
2018-04-11T04:36:41.508Z,75.07
2018-04-11T04:39:09.847Z,75.15
2018-04-11T04:41:38.306Z,75.06
2018-04-11T04:44:06.891Z,75.19
2018-04-11T04:46:35.286Z,74.78
2018-04-11T04:49:03.669Z,75.16
2018-04-11T04:51:32.279Z,75.15
2018-04-11T04:54:00.766Z,75.23
2018-04-11T04:56:29.144Z,75.02
2018-04-11T04:58:58.007Z,74.85
2018-04-11T05:01:26.979Z,74.93
2018-04-11T05:03:56.427Z,75.08
2018-04-11T05:06:25.012Z,75.19
2018-04-11T05:08:53.388Z,75.15
2018-04-11T05:11:22.136Z,75.30
2018-04-11T05:13:51.652Z,74.92
2018-04-11T05:16:21.437Z,74.88
2018-04-11T05:18:50.167Z,74.87
2018-04-11T05:21:18.757Z,75.13
2018-04-11T05:23:47.288Z,75.09
2018-04-11T05:26:16.578Z,74.99
2018-04-11T05:28:44.927Z,74.67
2018-04-11T05:31:13.336Z,74.74
2018-04-11T05:33:41.762Z,74.36
2018-04-11T05:36:10.129Z,74.23
2018-04-11T05:38:38.489Z,74.36
2018-04-11T05:41:07.168Z,74.46
2018-04-11T05:43:35.510Z,74.29
2018-04-11T05:46:03.873Z,74.09
2018-04-11T05:48:32.315Z,73.91
2018-04-11T05:51:00.794Z,73.76
2018-04-11T05:53:29.233Z,73.86
2018-04-11T05:55:58.021Z,74.00
2018-04-11T05:58:26.527Z,73.99
2018-04-11T06:00:55.095Z,73.92
2018-04-11T06:03:25.045Z,74.26
2018-04-11T06:05:53.445Z,74.42
2018-04-11T06:08:21.869Z,74.16
2018-04-11T06:10:50.599Z,74.07
2018-04-11T06:13:19.013Z,74.39
2018-04-11T06:15:48.136Z,74.04
2018-04-11T06:18:17.678Z,74.02
2018-04-11T06:20:46.143Z,74.03
2018-04-11T06:23:15.067Z,74.18
2018-04-11T06:25:44.428Z,73.82
2018-04-11T06:28:12.833Z,73.77
2018-04-11T06:30:41.317Z,73.57
2018-04-11T06:33:09.843Z,74.08
2018-04-11T06:35:38.200Z,73.73
2018-04-11T06:38:06.530Z,73.73
2018-04-11T06:40:35.062Z,73.69
2018-04-11T06:43:03.469Z,74.12
2018-04-11T06:45:31.860Z,74.09
2018-04-11T06:48:00.489Z,73.92
2018-04-11T06:50:29.036Z,73.95
2018-04-11T06:53:01.709Z,73.59
2018-04-11T06:55:30.207Z,73.65
2018-04-11T06:57:59.073Z,73.80
2018-04-11T07:00:27.841Z,73.80
2018-04-11T07:02:56.622Z,73.45
2018-04-11T07:05:25.033Z,73.15
2018-04-11T07:07:54.280Z,73.49
2018-04-11T07:10:22.925Z,73.25
2018-04-11T07:12:51.393Z,73.30
2018-04-11T07:15:20.069Z,73.41
2018-04-11T07:17:48.524Z,73.32
2018-04-11T07:20:18.015Z,73.51
2018-04-11T07:22:46.893Z,73.35
2018-04-11T07:25:15.354Z,73.41
2018-04-11T07:27:43.817Z,73.44
2018-04-11T07:30:12.807Z,73.82
2018-04-11T07:32:41.616Z,73.73
2018-04-11T07:35:10.245Z,74.33
2018-04-11T07:37:38.859Z,74.27
2018-04-11T07:40:08.294Z,74.20
2018-04-11T07:42:36.961Z,74.42
2018-04-11T07:45:06.369Z,73.93
2018-04-11T07:47:34.894Z,73.83
2018-04-11T07:50:03.253Z,73.97
2018-04-11T07:52:31.663Z,74.17
2018-04-11T07:55:00.076Z,73.97
2018-04-11T07:57:28.527Z,73.89
2018-04-11T07:59:56.972Z,73.99
2018-04-11T08:02:25.467Z,74.06
2018-04-11T08:04:53.863Z,74.39
2018-04-11T08:07:22.278Z,74.51
2018-04-11T08:09:50.736Z,74.30
2018-04-11T08:12:19.252Z,74.52
2018-04-11T08:14:47.821Z,74.36
2018-04-11T08:17:16.822Z,74.70
2018-04-11T08:19:45.475Z,74.82
2018-04-11T08:22:13.944Z,74.54
2018-04-11T08:24:42.529Z,74.35
2018-04-11T08:27:11.061Z,74.60
2018-04-11T08:29:40.463Z,75.03
2018-04-11T08:32:10.747Z,75.20
2018-04-11T08:34:39.398Z,75.03
2018-04-11T08:37:08.084Z,74.84
2018-04-11T08:39:38.199Z,74.78
2018-04-11T08:42:06.658Z,75.00
2018-04-11T08:44:35.643Z,75.03
2018-04-11T08:47:04.304Z,74.91
2018-04-11T08:49:33.222Z,74.81
2018-04-11T08:52:01.612Z,74.71
2018-04-11T08:54:29.977Z,74.66
2018-04-11T08:56:58.363Z,75.21
2018-04-11T08:59:27.557Z,75.27
2018-04-11T09:01:56.092Z,75.01
2018-04-11T09:04:25.425Z,75.35
2018-04-11T09:06:54.673Z,75.17
2018-04-11T09:09:23.118Z,75.00
2018-04-11T09:11:51.601Z,74.83
2018-04-11T09:14:20.187Z,75.46
2018-04-11T09:16:48.772Z,75.77
2018-04-11T09:19:17.454Z,75.86
2018-04-11T09:21:46.352Z,75.94
2018-04-11T09:24:14.859Z,75.56
2018-04-11T09:26:45.570Z,75.76
2018-04-11T09:29:14.245Z,75.75
2018-04-11T09:31:44.170Z,75.61
2018-04-11T09:34:12.948Z,75.90
2018-04-11T09:36:41.465Z,76.18
2018-04-11T09:39:12.064Z,76.26
2018-04-11T09:41:41.473Z,76.25
2018-04-11T09:44:10.589Z,76.07
2018-04-11T09:46:40.265Z,76.15
2018-04-11T09:49:09.362Z,76.02
2018-04-11T09:51:40.864Z,76.24
2018-04-11T09:54:10.097Z,76.06
2018-04-11T09:56:40.554Z,76.10
2018-04-11T09:59:10.651Z,76.62
2018-04-11T10:01:57.211Z,76.52
2018-04-11T10:04:29.538Z,76.90
2018-04-11T10:07:00.637Z,76.60
2018-04-11T10:09:30.516Z,76.45
2018-04-11T10:12:00.851Z,76.53
2018-04-11T10:14:31.128Z,76.75
2018-04-11T10:17:01.283Z,76.81
2018-04-11T10:19:30.571Z,76.35
2018-04-11T10:22:00.053Z,76.54
2018-04-11T10:24:30.122Z,76.77
2018-04-11T10:26:58.945Z,76.47
2018-04-11T10:29:27.529Z,76.24
2018-04-11T10:31:56.480Z,76.27
2018-04-11T10:34:25.670Z,76.19
2018-04-11T10:36:55.072Z,75.78
2018-04-11T10:39:25.082Z,75.91
2018-04-11T10:41:53.658Z,75.86
2018-04-11T10:44:22.789Z,75.65
2018-04-11T10:46:52.810Z,75.47
2018-04-11T10:49:22.671Z,75.45
2018-04-11T10:51:52.398Z,75.34
2018-04-11T10:54:22.186Z,74.85
2018-04-11T10:56:51.217Z,74.84
2018-04-11T10:59:21.325Z,74.53
2018-04-11T11:01:50.652Z,74.18
2018-04-11T11:04:20.189Z,74.12
2018-04-11T11:06:50.911Z,73.96
2018-04-11T11:09:20.455Z,74.53
2018-04-11T11:11:50.006Z,73.76
2018-04-11T11:14:18.557Z,73.48
2018-04-11T11:16:48.745Z,73.66
2018-04-11T11:19:17.382Z,73.49
2018-04-11T11:21:46.097Z,74.11
2018-04-11T11:24:14.665Z,73.52
2018-04-11T11:26:43.034Z,72.76
2018-04-11T11:29:11.442Z,72.69
2018-04-11T11:31:40.475Z,72.41
2018-04-11T11:34:08.835Z,72.93
2018-04-11T11:36:37.320Z,73.38
2018-04-11T11:39:05.814Z,73.61
2018-04-11T11:41:34.318Z,73.03
2018-04-11T11:44:02.669Z,73.32
2018-04-11T11:46:31.621Z,73.05
2018-04-11T11:49:00.797Z,72.69
2018-04-11T11:51:30.036Z,72.20
2018-04-11T11:53:59.619Z,72.53
2018-04-11T11:56:28.214Z,72.39
2018-04-11T11:58:56.735Z,72.22
2018-04-11T12:01:25.227Z,71.68
2018-04-11T12:03:53.798Z,72.10
2018-04-11T12:06:22.173Z,71.63
2018-04-11T12:08:51.168Z,71.65
2018-04-11T12:11:19.568Z,71.30
2018-04-11T12:13:48.405Z,71.19
2018-04-11T12:16:17.117Z,71.64
2018-04-11T12:18:45.487Z,71.80
2018-04-11T12:21:13.847Z,71.81
2018-04-11T12:23:43.543Z,71.96
2018-04-11T12:26:11.907Z,72.03
2018-04-11T12:28:40.411Z,71.37
2018-04-11T12:31:08.916Z,71.25
2018-04-11T12:33:37.419Z,71.57
2018-04-11T12:36:05.970Z,71.38
2018-04-11T12:38:34.472Z,70.89
2018-04-11T12:41:02.964Z,71.04
2018-04-11T12:43:31.538Z,71.19
2018-04-11T12:46:00.342Z,70.73
2018-04-11T12:48:29.125Z,70.69
2018-04-11T12:50:57.798Z,70.20
2018-04-11T12:53:27.028Z,70.78
2018-04-11T12:55:55.403Z,70.05
2018-04-11T12:58:23.882Z,70.49
2018-04-11T13:00:52.251Z,70.08
2018-04-11T13:03:20.901Z,69.75
2018-04-11T13:05:49.517Z,69.27
2018-04-11T13:08:18.594Z,69.51
2018-04-11T13:10:46.977Z,68.89
2018-04-11T13:13:16.144Z,69.17
2018-04-11T13:15:44.725Z,68.68
2018-04-11T13:18:13.239Z,68.40
2018-04-11T13:20:41.540Z,68.20
2018-04-11T13:23:10.242Z,68.40
2018-04-11T13:25:38.620Z,68.32
2018-04-11T13:28:06.962Z,68.63
2018-04-11T13:30:35.408Z,68.97
2018-04-11T13:33:03.759Z,68.76
2018-04-11T13:35:32.172Z,68.98
2018-04-11T13:38:01.164Z,69.58
2018-04-11T13:40:29.853Z,68.93
2018-04-11T13:42:58.278Z,68.45
2018-04-11T13:45:26.770Z,68.73
2018-04-11T13:47:55.229Z,69.13
2018-04-11T13:50:23.617Z,69.66
2018-04-11T13:52:52.385Z,69.90
2018-04-11T13:55:20.872Z,70.21
2018-04-11T13:57:49.280Z,69.68
2018-04-11T14:00:19.098Z,69.66
2018-04-11T14:02:47.540Z,69.34
2018-04-11T14:05:16.031Z,70.33
2018-04-11T14:07:44.630Z,70.37
2018-04-11T14:10:13.013Z,69.75
2018-04-11T14:12:41.543Z,69.84
2018-04-11T14:15:10.105Z,69.85
2018-04-11T14:17:38.632Z,69.78
2018-04-11T14:20:06.983Z,69.89
2018-04-11T14:22:35.636Z,70.22
2018-04-11T14:25:04.196Z,70.51
2018-04-11T14:27:32.606Z,70.46
2018-04-11T14:30:01.857Z,69.81
2018-04-11T14:32:30.672Z,69.88
2018-04-11T14:34:59.447Z,70.43
2018-04-11T14:37:28.634Z,70.86
2018-04-11T14:39:58.148Z,71.21
2018-04-11T14:42:26.835Z,71.14
2018-04-11T14:44:56.331Z,70.76
2018-04-11T14:47:25.218Z,70.42
2018-04-11T14:49:53.761Z,70.82
2018-04-11T14:52:22.922Z,70.94
2018-04-11T14:54:51.505Z,70.93
2018-04-11T14:57:21.482Z,71.26
2018-04-11T14:59:50.705Z,71.69
2018-04-11T15:02:19.188Z,71.32
2018-04-11T15:04:47.646Z,71.30
2018-04-11T15:07:16.154Z,71.36
2018-04-11T15:09:44.517Z,71.28
2018-04-11T15:12:12.939Z,71.59
2018-04-11T15:14:41.426Z,71.47
2018-04-11T15:17:09.882Z,72.06
2018-04-11T15:19:39.149Z,72.08
2018-04-11T15:22:07.627Z,72.16
2018-04-11T15:24:36.107Z,72.08
2018-04-11T15:27:04.546Z,72.40
2018-04-11T15:29:33.249Z,72.50
2018-04-11T15:32:01.632Z,72.41
2018-04-11T15:34:30.347Z,72.35
2018-04-11T15:37:00.214Z,72.46
2018-04-11T15:39:28.683Z,72.58
2018-04-11T15:41:57.441Z,72.94
2018-04-11T15:44:26.886Z,72.77
2018-04-11T15:46:56.172Z,72.32
2018-04-11T15:49:24.729Z,72.50
2018-04-11T15:51:53.936Z,72.48
2018-04-11T15:54:23.954Z,72.78
2018-04-11T15:56:52.872Z,72.92
2018-04-11T15:59:22.638Z,72.75
2018-04-11T16:01:51.467Z,72.56
2018-04-11T16:04:20.017Z,72.66
2018-04-11T16:06:48.612Z,73.34
2018-04-11T16:09:17.174Z,73.17
2018-04-11T16:11:45.804Z,73.16
2018-04-11T16:14:14.609Z,72.99
2018-04-11T16:16:42.930Z,73.27
2018-04-11T16:19:11.352Z,72.90
2018-04-11T16:21:40.630Z,72.63
2018-04-11T16:24:08.983Z,72.82
2018-04-11T16:26:37.303Z,72.83
2018-04-11T16:29:05.726Z,73.05
2018-04-11T16:31:34.167Z,73.00
2018-04-11T16:34:03.229Z,73.05
2018-04-11T16:36:31.759Z,73.08
2018-04-11T16:39:00.247Z,72.85
2018-04-11T16:41:29.213Z,72.97
2018-04-11T16:43:58.070Z,72.83
2018-04-11T16:46:26.679Z,72.67
2018-04-11T16:48:55.352Z,72.97
2018-04-11T16:51:24.511Z,73.08
2018-04-11T16:53:57.412Z,73.15
2018-04-11T16:56:27.808Z,73.01
2018-04-11T16:58:57.373Z,73.07
2018-04-11T17:01:26.309Z,72.96
2018-04-11T17:03:56.296Z,73.23
2018-04-11T17:06:24.801Z,73.34
2018-04-11T17:08:53.454Z,73.20
2018-04-11T17:11:23.475Z,73.18
2018-04-11T17:13:54.038Z,73.43
2018-04-11T17:16:25.117Z,73.30
2018-04-11T17:18:53.859Z,73.49
2018-04-11T17:21:35.206Z,73.21
2018-04-11T17:24:15.326Z,73.47
2018-04-11T17:26:55.835Z,73.37
2018-04-11T17:32:28.896Z,73.04
2018-04-11T17:34:57.330Z,73.08
2018-04-11T17:37:25.792Z,73.13
2018-04-11T17:39:54.325Z,73.18
2018-04-11T17:42:22.870Z,73.09
2018-04-11T17:44:51.441Z,73.32
2018-04-11T17:47:21.276Z,73.23
2018-04-11T17:49:49.850Z,73.53
2018-04-11T17:52:18.423Z,73.33
2018-04-11T17:54:48.391Z,73.06
2018-04-11T17:57:16.819Z,72.93
2018-04-11T17:59:45.272Z,73.33
2018-04-11T18:02:14.211Z,73.10
2018-04-11T18:04:43.768Z,73.01
2018-04-11T18:07:12.190Z,72.77
2018-04-11T18:09:41.514Z,72.82
2018-04-11T18:12:09.870Z,72.90
2018-04-11T18:14:38.228Z,72.89
2018-04-11T18:17:07.261Z,72.93
2018-04-11T18:19:35.715Z,72.81
2018-04-11T18:22:04.108Z,72.76
2018-04-11T18:24:33.456Z,72.51
2018-04-11T18:27:01.840Z,72.49
2018-04-11T18:29:30.394Z,72.43
2018-04-11T18:31:58.833Z,72.19
2018-04-11T18:34:27.515Z,71.97
2018-04-11T18:36:55.907Z,71.87
2018-04-11T18:39:24.292Z,72.22
2018-04-11T18:41:52.655Z,71.93
2018-04-11T18:44:21.101Z,72.03
2018-04-11T18:46:51.326Z,72.00
2018-04-11T18:49:19.755Z,71.85
2018-04-11T18:51:48.159Z,71.92
2018-04-11T18:54:16.734Z,72.02
2018-04-11T18:56:45.181Z,71.78
2018-04-11T18:59:13.605Z,72.09
2018-04-11T19:01:44.665Z,71.51
2018-04-11T19:04:13.128Z,71.79
2018-04-11T19:06:41.573Z,71.75
2018-04-11T19:09:10.485Z,71.91
2018-04-11T19:11:39.554Z,71.93
2018-04-11T19:14:08.138Z,72.08
2018-04-11T19:16:37.393Z,72.00
2018-04-11T19:19:06.066Z,71.73
2018-04-11T19:21:34.813Z,72.20
2018-04-11T19:24:04.046Z,71.92
2018-04-11T19:26:32.807Z,71.81
2018-04-11T19:29:01.179Z,71.90
2018-04-11T19:31:29.925Z,71.75
2018-04-11T19:33:58.552Z,71.65
2018-04-11T19:36:27.673Z,71.80
2018-04-11T19:38:56.211Z,71.88
2018-04-11T19:41:25.494Z,71.90
2018-04-11T19:43:55.094Z,72.09
2018-04-11T19:46:24.475Z,72.11
2018-04-11T19:48:53.440Z,72.06
2018-04-11T19:51:22.080Z,72.10
2018-04-11T19:53:51.671Z,72.53
2018-04-11T19:56:20.207Z,72.56
2018-04-11T19:58:48.934Z,72.80
2018-04-11T20:01:17.786Z,72.88
2018-04-11T20:03:47.200Z,72.97
2018-04-11T20:06:15.738Z,73.06
2018-04-11T20:08:44.368Z,73.30
2018-04-11T20:11:13.212Z,73.07
2018-04-11T20:13:41.701Z,72.98
2018-04-11T20:16:10.604Z,73.03
2018-04-11T20:18:39.011Z,73.15
2018-04-11T20:21:07.358Z,73.23
2018-04-11T20:23:35.821Z,73.00
2018-04-11T20:26:04.277Z,73.00
2018-04-11T20:28:32.714Z,72.91
2018-04-11T20:31:01.502Z,73.00
2018-04-11T20:33:29.959Z,72.93
2018-04-11T20:35:58.636Z,72.94
2018-04-11T20:38:27.113Z,72.86
2018-04-11T20:40:55.672Z,72.88
2018-04-11T20:43:24.315Z,73.06
2018-04-11T20:45:53.219Z,72.86
2018-04-11T20:48:21.778Z,72.71
2018-04-11T20:50:50.351Z,72.87
2018-04-11T20:53:19.762Z,73.03
2018-04-11T20:55:48.192Z,73.01
2018-04-11T20:58:16.642Z,72.97
2018-04-11T21:00:45.202Z,72.88
2018-04-11T22:28:13.515Z,73.47
2018-04-11T22:30:42.009Z,73.16
2018-04-11T22:33:10.509Z,72.98
2018-04-11T22:35:39.248Z,72.98
2018-04-11T22:38:07.582Z,72.80
2018-04-11T22:40:35.971Z,72.64
2018-04-11T22:43:05.057Z,72.63
2018-04-11T22:45:33.427Z,72.55
2018-04-11T22:48:01.782Z,72.48
2018-04-11T22:50:30.677Z,72.34
2018-04-11T22:52:59.107Z,72.41
2018-04-11T22:55:27.642Z,72.47
2018-04-11T22:57:56.164Z,72.59
2018-04-11T23:00:24.760Z,72.64
2018-04-11T23:02:53.389Z,72.92
2018-04-11T23:05:21.948Z,72.94
2018-04-11T23:07:50.405Z,73.06
2018-04-11T23:10:18.875Z,73.14
2018-04-11T23:12:48.141Z,73.30
2018-04-11T23:15:16.594Z,73.26
2018-04-11T23:17:44.947Z,73.25
2018-04-11T23:20:13.355Z,73.30
2018-04-11T23:22:41.826Z,73.29
2018-04-11T23:25:11.235Z,73.42
2018-04-11T23:27:41.059Z,73.49
2018-04-11T23:30:09.392Z,73.84
2018-04-11T23:32:37.866Z,73.92
2018-04-11T23:35:06.309Z,74.27
2018-04-11T23:37:34.676Z,74.11
2018-04-11T23:40:03.010Z,74.02
2018-04-11T23:42:31.574Z,74.25
2018-04-11T23:45:00.106Z,74.37
2018-04-11T23:47:28.471Z,74.59
2018-04-11T23:49:57.392Z,74.37
2018-04-11T23:52:25.813Z,74.50
2018-04-11T23:54:54.268Z,74.56
2018-04-11T23:57:23.499Z,74.49
2018-04-11T23:59:52.075Z,74.76
